sensor_id;sensor_type;location;lat;lon;timestamp;temperature;humidity
48876;DHT22;34689;51.644;5.618;2023-04-03T00:01:27;5.00;99.90
48876;DHT22;34689;51.644;5.618;2023-04-03T00:03:54;5.00;99.90
48876;DHT22;34689;51.644;5.618;2023-04-03T00:06:20;5.00;99.90
48876;DHT22;34689;51.644;5.618;2023-04-03T00:08:46;5.00;99.90
48876;DHT22;34689;51.644;5.618;2023-04-03T00:11:11;4.90;99.90
48876;DHT22;34689;51.644;5.618;2023-04-03T00:13:38;4.90;99.90
48876;DHT22;34689;51.644;5.618;2023-04-03T00:16:04;4.90;99.90
48876;DHT22;34689;51.644;5.618;2023-04-03T00:18:31;4.90;99.90
48876;DHT22;34689;51.644;5.618;2023-04-03T00:20:57;4.90;99.90
48876;DHT22;34689;51.644;5.618;2023-04-03T00:23:22;4.90;99.90
48876;DHT22;34689;51.644;5.618;2023-04-03T00:25:49;4.80;99.90
48876;DHT22;34689;51.644;5.618;2023-04-03T00:28:15;4.80;99.90
48876;DHT22;34689;51.644;5.618;2023-04-03T00:30:41;4.80;99.90
48876;DHT22;34689;51.644;5.618;2023-04-03T00:33:08;4.80;99.90
48876;DHT22;34689;51.644;5.618;2023-04-03T00:35:36;4.80;99.90
48876;DHT22;34689;51.644;5.618;2023-04-03T00:38:02;4.70;99.90
48876;DHT22;34689;51.644;5.618;2023-04-03T00:40:27;4.70;99.90
48876;DHT22;34689;51.644;5.618;2023-04-03T00:42:59;4.80;99.90
48876;DHT22;34689;51.644;5.618;2023-04-03T00:45:32;4.70;99.90
48876;DHT22;34689;51.644;5.618;2023-04-03T00:47:58;4.70;99.90
48876;DHT22;34689;51.644;5.618;2023-04-03T00:50:28;4.70;99.90
48876;DHT22;34689;51.644;5.618;2023-04-03T00:52:54;4.70;99.90
48876;DHT22;34689;51.644;5.618;2023-04-03T00:55:21;4.70;99.90
48876;DHT22;34689;51.644;5.618;2023-04-03T00:57:47;4.70;99.90
48876;DHT22;34689;51.644;5.618;2023-04-03T01:00:16;4.70;99.90
48876;DHT22;34689;51.644;5.618;2023-04-03T01:02:42;4.70;99.90
48876;DHT22;34689;51.644;5.618;2023-04-03T01:05:08;4.60;99.90
48876;DHT22;34689;51.644;5.618;2023-04-03T01:07:35;4.60;99.90
48876;DHT22;34689;51.644;5.618;2023-04-03T01:10:07;4.60;99.90
48876;DHT22;34689;51.644;5.618;2023-04-03T01:12:36;4.60;99.90
48876;DHT22;34689;51.644;5.618;2023-04-03T01:15:09;4.70;99.90
48876;DHT22;34689;51.644;5.618;2023-04-03T01:25:21;4.80;99.90
48876;DHT22;34689;51.644;5.618;2023-04-03T01:27:47;4.80;99.90
48876;DHT22;34689;51.644;5.618;2023-04-03T01:30:14;4.80;99.90
48876;DHT22;34689;51.644;5.618;2023-04-03T01:32:41;4.80;99.90
48876;DHT22;34689;51.644;5.618;2023-04-03T01:35:09;4.80;99.90
48876;DHT22;34689;51.644;5.618;2023-04-03T01:37:35;4.80;99.90
48876;DHT22;34689;51.644;5.618;2023-04-03T01:40:00;4.80;99.90
48876;DHT22;34689;51.644;5.618;2023-04-03T01:42:26;4.80;99.90
48876;DHT22;34689;51.644;5.618;2023-04-03T01:44:52;4.80;99.90
48876;DHT22;34689;51.644;5.618;2023-04-03T01:47:17;4.80;99.90
48876;DHT22;34689;51.644;5.618;2023-04-03T01:49:43;4.80;99.90
48876;DHT22;34689;51.644;5.618;2023-04-03T01:52:09;4.80;99.90
48876;DHT22;34689;51.644;5.618;2023-04-03T01:54:34;4.80;99.90
48876;DHT22;34689;51.644;5.618;2023-04-03T01:57:00;4.80;99.90
48876;DHT22;34689;51.644;5.618;2023-04-03T01:59:26;4.80;99.90
48876;DHT22;34689;51.644;5.618;2023-04-03T02:01:51;4.80;99.90
48876;DHT22;34689;51.644;5.618;2023-04-03T02:04:17;4.80;99.90
48876;DHT22;34689;51.644;5.618;2023-04-03T02:06:43;4.80;99.90
48876;DHT22;34689;51.644;5.618;2023-04-03T02:09:09;4.80;99.90
48876;DHT22;34689;51.644;5.618;2023-04-03T02:11:34;4.80;99.90
48876;DHT22;34689;51.644;5.618;2023-04-03T02:14:01;4.80;99.90
48876;DHT22;34689;51.644;5.618;2023-04-03T02:16:26;4.80;99.90
48876;DHT22;34689;51.644;5.618;2023-04-03T02:18:52;4.80;99.90
48876;DHT22;34689;51.644;5.618;2023-04-03T02:21:18;4.80;99.90
48876;DHT22;34689;51.644;5.618;2023-04-03T02:23:43;4.80;99.90
48876;DHT22;34689;51.644;5.618;2023-04-03T02:26:12;4.80;99.90
48876;DHT22;34689;51.644;5.618;2023-04-03T02:28:38;4.80;99.90
48876;DHT22;34689;51.644;5.618;2023-04-03T02:31:04;4.80;99.90
48876;DHT22;34689;51.644;5.618;2023-04-03T02:33:32;4.80;99.90
48876;DHT22;34689;51.644;5.618;2023-04-03T02:35:58;4.80;99.90
48876;DHT22;34689;51.644;5.618;2023-04-03T02:38:24;4.70;99.90
48876;DHT22;34689;51.644;5.618;2023-04-03T02:40:50;4.70;99.90
48876;DHT22;34689;51.644;5.618;2023-04-03T02:43:16;4.80;99.90
48876;DHT22;34689;51.644;5.618;2023-04-03T02:45:42;4.70;99.90
48876;DHT22;34689;51.644;5.618;2023-04-03T02:48:08;4.70;99.90
48876;DHT22;34689;51.644;5.618;2023-04-03T02:50:34;4.70;99.90
48876;DHT22;34689;51.644;5.618;2023-04-03T02:52:59;4.70;99.90
48876;DHT22;34689;51.644;5.618;2023-04-03T02:55:25;4.70;99.90
48876;DHT22;34689;51.644;5.618;2023-04-03T02:57:51;4.70;99.90
48876;DHT22;34689;51.644;5.618;2023-04-03T03:00:17;4.70;99.90
48876;DHT22;34689;51.644;5.618;2023-04-03T03:02:43;4.70;99.90
48876;DHT22;34689;51.644;5.618;2023-04-03T03:05:08;4.70;99.90
48876;DHT22;34689;51.644;5.618;2023-04-03T03:07:34;4.70;99.90
48876;DHT22;34689;51.644;5.618;2023-04-03T03:10:00;4.70;99.90
48876;DHT22;34689;51.644;5.618;2023-04-03T03:12:26;4.60;99.90
48876;DHT22;34689;51.644;5.618;2023-04-03T03:14:51;4.60;99.90
48876;DHT22;34689;51.644;5.618;2023-04-03T03:17:17;4.70;99.90
48876;DHT22;34689;51.644;5.618;2023-04-03T03:19:43;4.60;99.90
48876;DHT22;34689;51.644;5.618;2023-04-03T03:22:11;4.60;99.90
48876;DHT22;34689;51.644;5.618;2023-04-03T03:24:36;4.60;99.90
48876;DHT22;34689;51.644;5.618;2023-04-03T03:27:02;4.60;99.90
48876;DHT22;34689;51.644;5.618;2023-04-03T03:29:27;4.60;99.90
48876;DHT22;34689;51.644;5.618;2023-04-03T03:31:53;4.60;99.90
48876;DHT22;34689;51.644;5.618;2023-04-03T03:34:19;4.60;99.90
48876;DHT22;34689;51.644;5.618;2023-04-03T03:36:45;4.60;99.90
48876;DHT22;34689;51.644;5.618;2023-04-03T03:39:10;4.50;99.90
48876;DHT22;34689;51.644;5.618;2023-04-03T03:41:36;4.40;99.90
48876;DHT22;34689;51.644;5.618;2023-04-03T03:44:02;4.50;99.90
48876;DHT22;34689;51.644;5.618;2023-04-03T03:46:27;4.40;99.90
48876;DHT22;34689;51.644;5.618;2023-04-03T03:48:53;4.40;99.90
48876;DHT22;34689;51.644;5.618;2023-04-03T03:51:19;4.40;99.90
48876;DHT22;34689;51.644;5.618;2023-04-03T03:53:44;4.30;99.90
48876;DHT22;34689;51.644;5.618;2023-04-03T03:56:10;4.30;99.90
48876;DHT22;34689;51.644;5.618;2023-04-03T03:58:36;4.30;99.90
48876;DHT22;34689;51.644;5.618;2023-04-03T04:01:03;4.20;99.90
48876;DHT22;34689;51.644;5.618;2023-04-03T04:03:30;4.20;99.90
48876;DHT22;34689;51.644;5.618;2023-04-03T04:05:56;4.20;99.90
48876;DHT22;34689;51.644;5.618;2023-04-03T04:08:22;4.20;99.90
48876;DHT22;34689;51.644;5.618;2023-04-03T04:10:48;4.10;99.90
48876;DHT22;34689;51.644;5.618;2023-04-03T04:13:14;4.10;99.90
48876;DHT22;34689;51.644;5.618;2023-04-03T04:15:40;4.10;99.90
48876;DHT22;34689;51.644;5.618;2023-04-03T04:18:05;4.10;99.90
48876;DHT22;34689;51.644;5.618;2023-04-03T04:20:31;4.00;99.90
48876;DHT22;34689;51.644;5.618;2023-04-03T04:22:57;4.00;99.90
48876;DHT22;34689;51.644;5.618;2023-04-03T04:25:22;4.10;99.90
48876;DHT22;34689;51.644;5.618;2023-04-03T04:27:48;4.10;99.90
48876;DHT22;34689;51.644;5.618;2023-04-03T04:30:14;4.00;99.90
48876;DHT22;34689;51.644;5.618;2023-04-03T04:32:40;4.00;99.90
48876;DHT22;34689;51.644;5.618;2023-04-03T04:35:06;4.00;99.90
48876;DHT22;34689;51.644;5.618;2023-04-03T04:37:32;4.00;99.90
48876;DHT22;34689;51.644;5.618;2023-04-03T04:39:58;4.00;99.90
48876;DHT22;34689;51.644;5.618;2023-04-03T04:42:23;4.00;99.90
48876;DHT22;34689;51.644;5.618;2023-04-03T04:44:49;4.00;99.90
48876;DHT22;34689;51.644;5.618;2023-04-03T04:47:16;4.00;99.90
48876;DHT22;34689;51.644;5.618;2023-04-03T04:49:41;4.00;99.90
48876;DHT22;34689;51.644;5.618;2023-04-03T04:52:07;4.00;99.90
48876;DHT22;34689;51.644;5.618;2023-04-03T04:54:33;4.00;99.90
48876;DHT22;34689;51.644;5.618;2023-04-03T04:56:59;4.00;99.90
48876;DHT22;34689;51.644;5.618;2023-04-03T04:59:25;4.00;99.90
48876;DHT22;34689;51.644;5.618;2023-04-03T05:01:50;4.00;99.90
48876;DHT22;34689;51.644;5.618;2023-04-03T05:04:16;4.00;99.90
48876;DHT22;34689;51.644;5.618;2023-04-03T05:06:42;3.90;99.90
48876;DHT22;34689;51.644;5.618;2023-04-03T05:09:08;3.90;99.90
48876;DHT22;34689;51.644;5.618;2023-04-03T05:11:35;3.90;99.90
48876;DHT22;34689;51.644;5.618;2023-04-03T05:14:01;4.00;99.90
48876;DHT22;34689;51.644;5.618;2023-04-03T05:16:27;3.90;99.90
48876;DHT22;34689;51.644;5.618;2023-04-03T05:18:52;3.90;99.90
48876;DHT22;34689;51.644;5.618;2023-04-03T05:21:18;3.90;99.90
48876;DHT22;34689;51.644;5.618;2023-04-03T05:23:44;3.90;99.90
48876;DHT22;34689;51.644;5.618;2023-04-03T05:26:10;3.90;99.90
48876;DHT22;34689;51.644;5.618;2023-04-03T05:28:35;3.90;99.90
48876;DHT22;34689;51.644;5.618;2023-04-03T05:31:02;3.90;99.90
48876;DHT22;34689;51.644;5.618;2023-04-03T05:33:28;3.90;99.90
48876;DHT22;34689;51.644;5.618;2023-04-03T05:35:54;3.90;99.90
48876;DHT22;34689;51.644;5.618;2023-04-03T05:38:20;3.90;99.90
48876;DHT22;34689;51.644;5.618;2023-04-03T05:40:45;3.90;99.90
48876;DHT22;34689;51.644;5.618;2023-04-03T05:43:11;3.90;99.90
48876;DHT22;34689;51.644;5.618;2023-04-03T05:45:37;3.90;99.90
48876;DHT22;34689;51.644;5.618;2023-04-03T05:48:03;3.90;99.90
48876;DHT22;34689;51.644;5.618;2023-04-03T05:50:29;3.90;99.90
48876;DHT22;34689;51.644;5.618;2023-04-03T05:52:57;3.90;99.90
48876;DHT22;34689;51.644;5.618;2023-04-03T05:55:24;3.90;99.90
48876;DHT22;34689;51.644;5.618;2023-04-03T05:57:49;3.90;99.90
48876;DHT22;34689;51.644;5.618;2023-04-03T06:00:16;3.90;99.90
48876;DHT22;34689;51.644;5.618;2023-04-03T06:02:42;3.90;99.90
48876;DHT22;34689;51.644;5.618;2023-04-03T06:05:09;3.90;99.90
48876;DHT22;34689;51.644;5.618;2023-04-03T06:07:37;3.90;99.90
48876;DHT22;34689;51.644;5.618;2023-04-03T06:10:03;3.90;99.90
48876;DHT22;34689;51.644;5.618;2023-04-03T06:12:29;3.90;99.90
48876;DHT22;34689;51.644;5.618;2023-04-03T06:14:55;3.90;99.90
48876;DHT22;34689;51.644;5.618;2023-04-03T06:17:21;3.90;99.90
48876;DHT22;34689;51.644;5.618;2023-04-03T06:19:47;3.90;99.90
48876;DHT22;34689;51.644;5.618;2023-04-03T06:22:13;3.90;99.90
48876;DHT22;34689;51.644;5.618;2023-04-03T06:24:40;3.90;99.90
48876;DHT22;34689;51.644;5.618;2023-04-03T06:27:05;3.90;99.90
48876;DHT22;34689;51.644;5.618;2023-04-03T06:29:31;3.90;99.90
48876;DHT22;34689;51.644;5.618;2023-04-03T06:31:57;4.00;99.90
48876;DHT22;34689;51.644;5.618;2023-04-03T06:34:23;4.00;99.90
48876;DHT22;34689;51.644;5.618;2023-04-03T06:36:49;4.00;99.90
48876;DHT22;34689;51.644;5.618;2023-04-03T06:39:18;4.00;99.90
48876;DHT22;34689;51.644;5.618;2023-04-03T06:41:46;4.00;99.90
48876;DHT22;34689;51.644;5.618;2023-04-03T06:44:12;4.10;99.90
48876;DHT22;34689;51.644;5.618;2023-04-03T06:46:39;4.10;99.90
48876;DHT22;34689;51.644;5.618;2023-04-03T06:49:05;4.10;99.90
48876;DHT22;34689;51.644;5.618;2023-04-03T06:51:33;4.20;99.90
48876;DHT22;34689;51.644;5.618;2023-04-03T06:54:00;4.20;99.90
48876;DHT22;34689;51.644;5.618;2023-04-03T06:56:26;4.20;99.90
48876;DHT22;34689;51.644;5.618;2023-04-03T06:58:52;4.20;99.90
48876;DHT22;34689;51.644;5.618;2023-04-03T07:01:26;4.20;99.90
48876;DHT22;34689;51.644;5.618;2023-04-03T07:03:53;4.30;99.90
48876;DHT22;34689;51.644;5.618;2023-04-03T07:06:19;4.30;99.90
48876;DHT22;34689;51.644;5.618;2023-04-03T07:08:46;4.30;99.90
48876;DHT22;34689;51.644;5.618;2023-04-03T07:11:13;4.30;99.90
48876;DHT22;34689;51.644;5.618;2023-04-03T07:13:40;4.40;99.90
48876;DHT22;34689;51.644;5.618;2023-04-03T07:16:06;4.40;99.90
48876;DHT22;34689;51.644;5.618;2023-04-03T07:18:33;4.40;99.90
48876;DHT22;34689;51.644;5.618;2023-04-03T07:20:58;4.50;99.90
48876;DHT22;34689;51.644;5.618;2023-04-03T07:23:25;4.50;99.90
48876;DHT22;34689;51.644;5.618;2023-04-03T07:25:51;4.60;99.90
48876;DHT22;34689;51.644;5.618;2023-04-03T07:28:19;4.60;99.90
48876;DHT22;34689;51.644;5.618;2023-04-03T07:30:46;4.60;99.90
48876;DHT22;34689;51.644;5.618;2023-04-03T07:33:13;4.60;99.90
48876;DHT22;34689;51.644;5.618;2023-04-03T07:35:40;4.70;99.90
48876;DHT22;34689;51.644;5.618;2023-04-03T07:38:06;4.80;99.90
48876;DHT22;34689;51.644;5.618;2023-04-03T07:40:32;4.80;99.90
48876;DHT22;34689;51.644;5.618;2023-04-03T07:42:59;4.80;99.90
48876;DHT22;34689;51.644;5.618;2023-04-03T07:45:25;4.80;99.90
48876;DHT22;34689;51.644;5.618;2023-04-03T07:47:51;4.90;99.90
48876;DHT22;34689;51.644;5.618;2023-04-03T07:50:18;4.90;99.90
48876;DHT22;34689;51.644;5.618;2023-04-03T07:52:44;4.90;99.90
48876;DHT22;34689;51.644;5.618;2023-04-03T07:55:10;5.00;99.90
48876;DHT22;34689;51.644;5.618;2023-04-03T07:57:36;5.00;99.90
48876;DHT22;34689;51.644;5.618;2023-04-03T08:00:04;5.10;99.90
48876;DHT22;34689;51.644;5.618;2023-04-03T08:02:30;5.10;99.90
48876;DHT22;34689;51.644;5.618;2023-04-03T08:04:58;5.10;99.90
48876;DHT22;34689;51.644;5.618;2023-04-03T08:07:24;5.20;99.90
48876;DHT22;34689;51.644;5.618;2023-04-03T08:09:51;5.20;99.90
48876;DHT22;34689;51.644;5.618;2023-04-03T08:12:17;5.30;99.90
48876;DHT22;34689;51.644;5.618;2023-04-03T08:14:42;5.30;99.90
48876;DHT22;34689;51.644;5.618;2023-04-03T08:17:08;5.40;99.90
48876;DHT22;34689;51.644;5.618;2023-04-03T08:19:37;5.40;99.90
48876;DHT22;34689;51.644;5.618;2023-04-03T08:22:03;5.50;99.90
48876;DHT22;34689;51.644;5.618;2023-04-03T08:24:30;5.50;99.90
48876;DHT22;34689;51.644;5.618;2023-04-03T08:26:56;5.60;99.90
48876;DHT22;34689;51.644;5.618;2023-04-03T08:29:23;5.60;99.90
48876;DHT22;34689;51.644;5.618;2023-04-03T08:31:49;5.70;99.90
48876;DHT22;34689;51.644;5.618;2023-04-03T08:34:16;5.70;99.90
48876;DHT22;34689;51.644;5.618;2023-04-03T08:36:42;5.80;99.90
48876;DHT22;34689;51.644;5.618;2023-04-03T08:39:09;5.80;99.90
48876;DHT22;34689;51.644;5.618;2023-04-03T08:41:37;5.80;99.90
48876;DHT22;34689;51.644;5.618;2023-04-03T08:47:04;6.00;99.90
48876;DHT22;34689;51.644;5.618;2023-04-03T08:49:42;6.10;99.90
48876;DHT22;34689;51.644;5.618;2023-04-03T08:52:41;6.10;99.90
48876;DHT22;34689;51.644;5.618;2023-04-03T08:55:31;6.20;99.90
48876;DHT22;34689;51.644;5.618;2023-04-03T08:58:45;6.30;99.90
48876;DHT22;34689;51.644;5.618;2023-04-03T09:03:32;6.40;99.90
48876;DHT22;34689;51.644;5.618;2023-04-03T09:06:06;6.50;99.90
48876;DHT22;34689;51.644;5.618;2023-04-03T09:08:56;6.50;99.90
48876;DHT22;34689;51.644;5.618;2023-04-03T09:21:45;6.90;99.90
48876;DHT22;34689;51.644;5.618;2023-04-03T09:24:14;7.00;99.90
48876;DHT22;34689;51.644;5.618;2023-04-03T09:26:56;7.10;99.90
48876;DHT22;34689;51.644;5.618;2023-04-03T09:29:25;7.20;99.90
48876;DHT22;34689;51.644;5.618;2023-04-03T09:32:00;7.30;99.90
48876;DHT22;34689;51.644;5.618;2023-04-03T09:34:32;7.40;99.90
48876;DHT22;34689;51.644;5.618;2023-04-03T09:37:02;7.50;99.90
48876;DHT22;34689;51.644;5.618;2023-04-03T09:39:55;7.50;99.90
48876;DHT22;34689;51.644;5.618;2023-04-03T09:42:25;7.70;99.90
48876;DHT22;34689;51.644;5.618;2023-04-03T09:45:00;7.80;99.90
48876;DHT22;34689;51.644;5.618;2023-04-03T09:47:34;8.00;98.90
48876;DHT22;34689;51.644;5.618;2023-04-03T09:50:20;8.20;97.70
48876;DHT22;34689;51.644;5.618;2023-04-03T09:52:51;8.70;96.40
48876;DHT22;34689;51.644;5.618;2023-04-03T09:55:22;10.10;95.20
48876;DHT22;34689;51.644;5.618;2023-04-03T09:58:05;13.00;87.30
48876;DHT22;34689;51.644;5.618;2023-04-03T10:00:57;15.90;66.30
48876;DHT22;34689;51.644;5.618;2023-04-03T10:03:34;18.20;59.80
48876;DHT22;34689;51.644;5.618;2023-04-03T10:06:04;19.80;58.60
48876;DHT22;34689;51.644;5.618;2023-04-03T10:08:59;20.90;54.50
48876;DHT22;34689;51.644;5.618;2023-04-03T10:11:26;22.10;49.90
48876;DHT22;34689;51.644;5.618;2023-04-03T10:14:00;22.70;51.50
48876;DHT22;34689;51.644;5.618;2023-04-03T10:16:47;23.20;50.20
48876;DHT22;34689;51.644;5.618;2023-04-03T10:19:39;23.70;48.40
48876;DHT22;34689;51.644;5.618;2023-04-03T10:22:27;23.70;47.20
48876;DHT22;34689;51.644;5.618;2023-04-03T10:28:06;22.40;47.00
48876;DHT22;34689;51.644;5.618;2023-04-03T10:36:06;18.10;56.10
48876;DHT22;34689;51.644;5.618;2023-04-03T10:46:49;15.60;56.80
48876;DHT22;34689;51.644;5.618;2023-04-03T10:49:32;15.30;59.00
48876;DHT22;34689;51.644;5.618;2023-04-03T10:57:40;14.60;58.50
48876;DHT22;34689;51.644;5.618;2023-04-03T11:00:17;14.40;58.90
48876;DHT22;34689;51.644;5.618;2023-04-03T11:02:55;14.20;59.20
48876;DHT22;34689;51.644;5.618;2023-04-03T11:05:39;14.10;59.90
48876;DHT22;34689;51.644;5.618;2023-04-03T11:08:13;13.90;59.80
48876;DHT22;34689;51.644;5.618;2023-04-03T11:10:50;13.70;61.90
48876;DHT22;34689;51.644;5.618;2023-04-03T11:13:30;13.70;62.30
48876;DHT22;34689;51.644;5.618;2023-04-03T11:15:58;13.60;63.00
48876;DHT22;34689;51.644;5.618;2023-04-03T11:21:13;13.50;62.30
48876;DHT22;34689;51.644;5.618;2023-04-03T11:23:46;13.50;61.40
48876;DHT22;34689;51.644;5.618;2023-04-03T11:26:14;13.50;61.80
48876;DHT22;34689;51.644;5.618;2023-04-03T11:28:41;13.50;61.90
48876;DHT22;34689;51.644;5.618;2023-04-03T11:36:44;13.40;61.30
48876;DHT22;34689;51.644;5.618;2023-04-03T11:39:26;13.30;60.90
48876;DHT22;34689;51.644;5.618;2023-04-03T11:41:54;13.30;61.10
48876;DHT22;34689;51.644;5.618;2023-04-03T11:44:39;13.20;60.90
48876;DHT22;34689;51.644;5.618;2023-04-03T11:47:06;13.20;62.50
48876;DHT22;34689;51.644;5.618;2023-04-03T12:00:50;13.40;62.90
48876;DHT22;34689;51.644;5.618;2023-04-03T12:08:34;13.30;62.20
48876;DHT22;34689;51.644;5.618;2023-04-03T12:16:22;13.10;62.40
48876;DHT22;34689;51.644;5.618;2023-04-03T12:21:15;13.20;63.20
48876;DHT22;34689;51.644;5.618;2023-04-03T12:40:37;13.50;63.70
48876;DHT22;34689;51.644;5.618;2023-04-03T12:51:06;13.60;62.80
48876;DHT22;34689;51.644;5.618;2023-04-03T12:53:37;13.60;62.90
48876;DHT22;34689;51.644;5.618;2023-04-03T12:58:53;13.70;63.20
48876;DHT22;34689;51.644;5.618;2023-04-03T13:01:24;13.70;63.60
48876;DHT22;34689;51.644;5.618;2023-04-03T13:04:00;13.80;62.90
48876;DHT22;34689;51.644;5.618;2023-04-03T13:06:30;13.90;63.10
48876;DHT22;34689;51.644;5.618;2023-04-03T13:09:01;14.00;63.00
48876;DHT22;34689;51.644;5.618;2023-04-03T13:11:40;14.00;62.70
48876;DHT22;34689;51.644;5.618;2023-04-03T13:14:21;14.00;62.50
48876;DHT22;34689;51.644;5.618;2023-04-03T13:19:25;14.20;62.50
48876;DHT22;34689;51.644;5.618;2023-04-03T13:22:34;14.30;62.90
48876;DHT22;34689;51.644;5.618;2023-04-03T13:25:07;14.50;60.10
48876;DHT22;34689;51.644;5.618;2023-04-03T13:27:34;14.60;61.70
48876;DHT22;34689;51.644;5.618;2023-04-03T13:30:02;14.70;61.30
48876;DHT22;34689;51.644;5.618;2023-04-03T13:32:30;14.70;61.60
48876;DHT22;34689;51.644;5.618;2023-04-03T13:34:56;14.70;61.50
48876;DHT22;34689;51.644;5.618;2023-04-03T13:37:31;14.80;61.40
48876;DHT22;34689;51.644;5.618;2023-04-03T13:40:08;14.80;61.60
48876;DHT22;34689;51.644;5.618;2023-04-03T13:42:39;14.90;61.10
48876;DHT22;34689;51.644;5.618;2023-04-03T13:45:24;15.00;61.30
48876;DHT22;34689;51.644;5.618;2023-04-03T13:48:06;15.10;60.20
48876;DHT22;34689;51.644;5.618;2023-04-03T13:50:33;15.20;61.20
48876;DHT22;34689;51.644;5.618;2023-04-03T13:53:10;15.30;60.70
48876;DHT22;34689;51.644;5.618;2023-04-03T13:58:23;15.50;60.40
48876;DHT22;34689;51.644;5.618;2023-04-03T14:00:51;15.50;60.60
48876;DHT22;34689;51.644;5.618;2023-04-03T14:03:40;15.60;61.40
48876;DHT22;34689;51.644;5.618;2023-04-03T14:06:07;15.70;61.70
48876;DHT22;34689;51.644;5.618;2023-04-03T14:08:37;15.70;61.20
48876;DHT22;34689;51.644;5.618;2023-04-03T14:11:03;15.70;61.70
48876;DHT22;34689;51.644;5.618;2023-04-03T14:13:30;15.80;61.10
48876;DHT22;34689;51.644;5.618;2023-04-03T14:15:58;15.70;61.40
48876;DHT22;34689;51.644;5.618;2023-04-03T14:18:25;15.60;61.00
48876;DHT22;34689;51.644;5.618;2023-04-03T14:20:51;15.50;61.90
48876;DHT22;34689;51.644;5.618;2023-04-03T14:23:20;15.40;61.60
48876;DHT22;34689;51.644;5.618;2023-04-03T14:25:48;15.40;61.90
48876;DHT22;34689;51.644;5.618;2023-04-03T14:28:18;15.50;61.90
48876;DHT22;34689;51.644;5.618;2023-04-03T14:30:47;15.50;61.70
48876;DHT22;34689;51.644;5.618;2023-04-03T14:33:17;15.40;61.30
48876;DHT22;34689;51.644;5.618;2023-04-03T14:35:44;15.30;61.90
48876;DHT22;34689;51.644;5.618;2023-04-03T14:38:27;15.10;62.30
48876;DHT22;34689;51.644;5.618;2023-04-03T14:40:53;15.00;62.40
48876;DHT22;34689;51.644;5.618;2023-04-03T14:43:22;14.80;62.80
48876;DHT22;34689;51.644;5.618;2023-04-03T14:45:49;14.60;62.70
48876;DHT22;34689;51.644;5.618;2023-04-03T14:48:19;14.30;62.90
48876;DHT22;34689;51.644;5.618;2023-04-03T14:50:46;14.20;63.10
48876;DHT22;34689;51.644;5.618;2023-04-03T14:53:15;14.00;63.20
48876;DHT22;34689;51.644;5.618;2023-04-03T14:55:49;13.90;63.70
48876;DHT22;34689;51.644;5.618;2023-04-03T14:58:17;13.80;63.60
48876;DHT22;34689;51.644;5.618;2023-04-03T15:00:44;13.70;64.10
48876;DHT22;34689;51.644;5.618;2023-04-03T15:03:16;13.50;64.30
48876;DHT22;34689;51.644;5.618;2023-04-03T15:05:43;13.50;65.00
48876;DHT22;34689;51.644;5.618;2023-04-03T15:08:27;13.40;64.80
48876;DHT22;34689;51.644;5.618;2023-04-03T15:10:55;13.40;65.20
48876;DHT22;34689;51.644;5.618;2023-04-03T15:13:22;13.40;64.60
48876;DHT22;34689;51.644;5.618;2023-04-03T15:15:49;13.30;65.00
48876;DHT22;34689;51.644;5.618;2023-04-03T15:18:20;13.20;64.70
48876;DHT22;34689;51.644;5.618;2023-04-03T15:20:46;13.10;64.80
48876;DHT22;34689;51.644;5.618;2023-04-03T15:23:15;13.00;65.50
48876;DHT22;34689;51.644;5.618;2023-04-03T15:25:46;13.00;64.90
48876;DHT22;34689;51.644;5.618;2023-04-03T15:28:30;12.80;65.60
48876;DHT22;34689;51.644;5.618;2023-04-03T15:30:56;12.80;66.00
48876;DHT22;34689;51.644;5.618;2023-04-03T15:33:22;12.80;65.80
48876;DHT22;34689;51.644;5.618;2023-04-03T15:35:48;12.70;66.20
48876;DHT22;34689;51.644;5.618;2023-04-03T15:38:14;12.70;66.00
48876;DHT22;34689;51.644;5.618;2023-04-03T15:40:40;12.60;66.20
48876;DHT22;34689;51.644;5.618;2023-04-03T15:43:07;12.50;66.40
48876;DHT22;34689;51.644;5.618;2023-04-03T15:45:35;12.50;66.40
48876;DHT22;34689;51.644;5.618;2023-04-03T15:48:03;12.40;66.80
48876;DHT22;34689;51.644;5.618;2023-04-03T15:50:31;12.40;67.10
48876;DHT22;34689;51.644;5.618;2023-04-03T15:52:57;12.40;67.00
48876;DHT22;34689;51.644;5.618;2023-04-03T15:55:30;12.30;67.00
48876;DHT22;34689;51.644;5.618;2023-04-03T15:57:56;12.30;67.00
48876;DHT22;34689;51.644;5.618;2023-04-03T16:00:23;12.20;67.20
48876;DHT22;34689;51.644;5.618;2023-04-03T16:02:53;12.20;67.10
48876;DHT22;34689;51.644;5.618;2023-04-03T16:05:19;12.10;67.40
48876;DHT22;34689;51.644;5.618;2023-04-03T16:07:45;12.10;67.70
48876;DHT22;34689;51.644;5.618;2023-04-03T16:10:13;12.10;67.70
48876;DHT22;34689;51.644;5.618;2023-04-03T16:12:40;12.00;68.10
48876;DHT22;34689;51.644;5.618;2023-04-03T16:15:06;12.00;67.30
48876;DHT22;34689;51.644;5.618;2023-04-03T16:17:34;11.90;67.70
48876;DHT22;34689;51.644;5.618;2023-04-03T16:20:03;11.80;67.70
48876;DHT22;34689;51.644;5.618;2023-04-03T16:22:29;11.80;68.40
48876;DHT22;34689;51.644;5.618;2023-04-03T16:24:58;11.70;67.70
48876;DHT22;34689;51.644;5.618;2023-04-03T16:27:27;11.70;68.10
48876;DHT22;34689;51.644;5.618;2023-04-03T16:29:55;11.60;68.00
48876;DHT22;34689;51.644;5.618;2023-04-03T16:32:22;11.60;67.70
48876;DHT22;34689;51.644;5.618;2023-04-03T16:34:48;11.50;68.00
48876;DHT22;34689;51.644;5.618;2023-04-03T16:37:14;11.50;68.20
48876;DHT22;34689;51.644;5.618;2023-04-03T16:39:40;11.40;68.20
48876;DHT22;34689;51.644;5.618;2023-04-03T16:42:09;11.40;68.60
48876;DHT22;34689;51.644;5.618;2023-04-03T16:44:35;11.30;68.80
48876;DHT22;34689;51.644;5.618;2023-04-03T16:47:01;11.30;68.50
48876;DHT22;34689;51.644;5.618;2023-04-03T16:49:27;11.20;68.50
48876;DHT22;34689;51.644;5.618;2023-04-03T16:51:58;11.20;68.90
48876;DHT22;34689;51.644;5.618;2023-04-03T16:54:27;11.10;69.10
48876;DHT22;34689;51.644;5.618;2023-04-03T16:56:53;11.10;69.10
48876;DHT22;34689;51.644;5.618;2023-04-03T16:59:18;11.10;69.40
48876;DHT22;34689;51.644;5.618;2023-04-03T17:01:44;11.00;69.40
48876;DHT22;34689;51.644;5.618;2023-04-03T17:04:10;11.00;69.40
48876;DHT22;34689;51.644;5.618;2023-04-03T17:06:36;10.90;69.40
48876;DHT22;34689;51.644;5.618;2023-04-03T17:09:02;10.90;69.60
48876;DHT22;34689;51.644;5.618;2023-04-03T17:11:31;10.80;69.80
48876;DHT22;34689;51.644;5.618;2023-04-03T17:13:57;10.80;69.70
48876;DHT22;34689;51.644;5.618;2023-04-03T17:16:23;10.70;70.10
48876;DHT22;34689;51.644;5.618;2023-04-03T17:18:49;10.70;69.90
48876;DHT22;34689;51.644;5.618;2023-04-03T17:21:15;10.70;70.30
48876;DHT22;34689;51.644;5.618;2023-04-03T17:23:48;10.70;70.30
48876;DHT22;34689;51.644;5.618;2023-04-03T17:26:15;10.60;70.60
48876;DHT22;34689;51.644;5.618;2023-04-03T17:28:40;10.60;70.70
48876;DHT22;34689;51.644;5.618;2023-04-03T17:31:06;10.60;71.00
48876;DHT22;34689;51.644;5.618;2023-04-03T17:33:33;10.60;71.00
48876;DHT22;34689;51.644;5.618;2023-04-03T17:36:02;10.60;71.30
48876;DHT22;34689;51.644;5.618;2023-04-03T17:38:30;10.50;71.30
48876;DHT22;34689;51.644;5.618;2023-04-03T17:41:00;10.50;71.10